METAR AND TAF INFORMATION
METAR FOR KPHL
KPHL 270354Z 00000KT 10SM SCT280 06/02 A3004 RMK AO2 SLP173 T00610022
KPHL 270254Z 00000KT 10SM SCT280 08/02 A3005 RMK AO2 SLP174 T00830022 51010
KPHL 270154Z 21003KT 10SM SCT260 09/02 A3005 RMK AO2 SLP174 T00890022
KPHL 270535Z 2706/2812 18003KT P6SM SCT250
FM271600 19012G22KT P6SM SCT100 BKN250
FM272300 19012G20KT 6SM -SHRA BR OVC025 WS020/20040KT
FM280300 19013G23KT 6SM -SHRA OVC015 WS020/20045KT
TEMPO 2808/2812 BKN008

 AIRPORT MAP

 RUNWAY INFORMATION
Runway 08 Runway length 5000 ft Runway width 150 ft
Runway elevation 9 ft Runway displaced threshold 0 ft Runway heading 76
Runway 26 Runway length 5000 ft Runway width 150 ft
Runway elevation 36 ft Runway displaced threshold 0 ft Runway heading 256
Runway 09L Runway length 9500 ft Runway width 150 ft
Runway elevation 13 ft Runway displaced threshold 0 ft Runway heading 76
Runway 27R Runway length 9500 ft Runway width 150 ft
Runway elevation 11 ft Runway displaced threshold 0 ft Runway heading 256
Runway 09R Runway length 10506 ft Runway width 200 ft
Runway elevation 20 ft Runway displaced threshold 0 ft Runway heading 76
Runway 27L Runway length 10506 ft Runway width 200 ft
Runway elevation 9 ft Runway displaced threshold 0 ft Runway heading 256
Runway 17 Runway length 5460 ft Runway width 150 ft
Runway elevation 9 ft Runway displaced threshold 0 ft Runway heading 159
Runway 35 Runway length 5460 ft Runway width 150 ft
Runway elevation 9 ft Runway displaced threshold 0 ft Runway heading 339

 AIRPORT FREQUENCIES
Type APP Name APP Frequency 123.8 MHZ
Type ARR Name PRM Frequency 120.425 MHZ
Type ATIS Name ATIS Frequency 133.4 MHZ
Type CLD Name CLNC DEL Frequency 118.85 MHZ
Type DEP Name DEP Frequency 119.75 MHZ
Type GND Name GND Frequency 121.9 MHZ
Type TWR Name TWR Frequency 118.5 MHZ
Type UNIC Name UNICOM Frequency 122.95 MHZ

 AIRPORT NEAR NAVIGATION AIDS
Type NDB Name Speez Frequency 222 KHZ

-